createdAt,value
2023-04-25T00:00:39.464Z,3.80
2023-04-25T00:01:39.419Z,3.50
2023-04-25T00:02:39.559Z,3.50
2023-04-25T00:03:39.525Z,3.60
2023-04-25T00:04:39.908Z,3.90
2023-04-25T00:05:39.414Z,3.80
2023-04-25T00:06:39.404Z,3.80
2023-04-25T00:07:39.356Z,4.10
2023-04-25T00:08:39.365Z,3.60
2023-04-25T00:09:39.350Z,3.70
2023-04-25T00:10:39.311Z,3.60
2023-04-25T00:11:39.292Z,3.60
2023-04-25T00:12:39.311Z,3.20
2023-04-25T00:13:39.292Z,3.90
2023-04-25T00:14:39.267Z,3.50
2023-04-25T00:15:39.272Z,3.40
2023-04-25T00:16:39.326Z,3.70
2023-04-25T00:17:39.354Z,3.50
2023-04-25T00:18:39.229Z,3.50
2023-04-25T00:19:39.223Z,3.70
2023-04-25T00:20:39.216Z,3.60
2023-04-25T00:21:39.199Z,3.40
2023-04-25T00:22:39.172Z,3.50
2023-04-25T00:23:39.184Z,3.30
2023-04-25T00:24:39.161Z,3.30
2023-04-25T00:25:39.152Z,3.40
2023-04-25T00:26:39.128Z,3.90
2023-04-25T00:27:39.117Z,3.30
2023-04-25T00:28:39.124Z,3.40
2023-04-25T00:29:39.113Z,3.20
2023-04-25T00:30:39.091Z,3.60
2023-04-25T00:31:39.197Z,3.40
2023-04-25T00:32:39.099Z,3.50
2023-04-25T00:33:39.043Z,3.40
2023-04-25T00:34:39.058Z,3.30
2023-04-25T00:35:39.023Z,3.20
2023-04-25T00:36:39.041Z,3.70
2023-04-25T00:37:38.998Z,3.90
2023-04-25T00:38:38.991Z,3.70
2023-04-25T00:39:38.983Z,3.40
2023-04-25T00:40:38.983Z,3.40
2023-04-25T00:41:39.017Z,3.50
2023-04-25T00:42:38.980Z,3.80
2023-04-25T00:43:38.934Z,3.70
2023-04-25T00:44:38.923Z,3.80
2023-04-25T00:45:38.940Z,3.40
2023-04-25T00:46:38.975Z,3.70
2023-04-25T00:47:38.923Z,3.70
2023-04-25T00:48:38.941Z,3.60
2023-04-25T00:49:38.884Z,3.40
2023-04-25T00:50:38.877Z,3.60
2023-04-25T00:51:38.858Z,3.80
2023-04-25T00:52:38.831Z,3.50
2023-04-25T00:53:38.817Z,3.90
2023-04-25T00:54:38.817Z,3.60
2023-04-25T00:55:38.797Z,3.70
2023-04-25T00:56:38.785Z,3.50
2023-04-25T00:57:39.239Z,3.50
2023-04-25T00:58:38.761Z,3.60
2023-04-25T00:59:38.759Z,3.60
2023-04-25T01:00:38.790Z,3.90
2023-04-25T01:01:41.734Z,3.40
2023-04-25T01:02:38.836Z,3.60
2023-04-25T01:03:38.779Z,3.60
2023-04-25T01:04:38.700Z,3.50
2023-04-25T01:05:38.689Z,3.50
2023-04-25T01:06:38.687Z,3.50
2023-04-25T01:07:38.682Z,3.60
2023-04-25T01:08:38.648Z,3.80
2023-04-25T01:09:38.637Z,3.90
2023-04-25T01:10:38.627Z,3.70
2023-04-25T01:11:38.615Z,3.90
2023-04-25T01:12:38.640Z,4.10
2023-04-25T01:13:38.608Z,3.50
2023-04-25T01:14:38.584Z,4.00
2023-04-25T01:15:38.567Z,3.70
2023-04-25T01:16:38.601Z,4.10
2023-04-25T01:17:38.588Z,3.80
2023-04-25T01:18:38.564Z,4.50
2023-04-25T01:19:38.538Z,3.80
2023-04-25T01:20:38.546Z,3.70
2023-04-25T01:21:38.535Z,4.10
2023-04-25T01:22:38.543Z,4.00
2023-04-25T01:23:38.484Z,4.10
2023-04-25T01:24:38.481Z,4.10
2023-04-25T01:25:38.455Z,4.20
2023-04-25T01:26:38.472Z,3.60
2023-04-25T01:27:38.438Z,4.20
2023-04-25T01:28:38.452Z,3.90
2023-04-25T01:29:38.430Z,3.90
2023-04-25T01:30:38.413Z,4.20
2023-04-25T01:31:38.425Z,3.90
2023-04-25T01:32:38.453Z,3.80
2023-04-25T01:33:38.407Z,3.80
2023-04-25T01:34:38.359Z,3.80
2023-04-25T01:35:38.342Z,4.00
2023-04-25T01:36:38.342Z,4.20
2023-04-25T01:37:38.341Z,3.70
2023-04-25T01:38:38.333Z,3.60
2023-04-25T01:39:38.317Z,4.20
2023-04-25T01:40:38.310Z,4.10
2023-04-25T01:41:38.294Z,4.10
2023-04-25T01:42:38.272Z,3.90
2023-04-25T01:43:38.268Z,4.10
2023-04-25T01:44:38.246Z,4.20
2023-04-25T01:45:38.256Z,4.30
2023-04-25T01:46:38.250Z,4.00
2023-04-25T01:47:38.248Z,4.00
2023-04-25T01:48:38.221Z,4.50
2023-04-25T01:49:38.179Z,4.40
2023-04-25T01:50:38.172Z,4.00
2023-04-25T01:51:38.180Z,4.30
2023-04-25T01:52:38.180Z,4.10
2023-04-25T01:53:38.139Z,3.70
2023-04-25T01:54:38.157Z,4.20
2023-04-25T01:55:38.121Z,3.90
2023-04-25T01:56:38.107Z,3.80
2023-04-25T01:57:38.088Z,4.10
2023-04-25T01:58:38.079Z,4.40
2023-04-25T01:59:38.099Z,4.10
2023-04-25T02:00:38.068Z,4.50
2023-04-25T02:01:38.213Z,3.80
2023-04-25T02:02:38.243Z,4.20
2023-04-25T02:03:38.250Z,4.00
2023-04-25T02:04:38.093Z,4.20
2023-04-25T02:05:38.035Z,4.20
2023-04-25T02:06:38.005Z,4.20
2023-04-25T02:07:37.995Z,4.00
2023-04-25T02:08:37.966Z,4.50
2023-04-25T02:09:37.970Z,3.70
2023-04-25T02:10:37.975Z,4.00
2023-04-25T02:11:37.934Z,4.70
2023-04-25T02:12:37.934Z,4.30
2023-04-25T02:13:37.912Z,4.40
2023-04-25T02:14:37.900Z,4.50
2023-04-25T02:15:37.954Z,4.30
2023-04-25T02:16:37.997Z,5.10
2023-04-25T02:17:37.907Z,4.50
2023-04-25T02:18:37.879Z,4.30
2023-04-25T02:19:37.844Z,4.80
2023-04-25T02:20:37.852Z,4.00
2023-04-25T02:21:37.838Z,4.60
2023-04-25T02:22:37.814Z,4.70
2023-04-25T02:23:37.826Z,4.30
2023-04-25T02:24:37.837Z,4.30
2023-04-25T02:25:37.799Z,4.30
2023-04-25T02:26:37.793Z,4.90
2023-04-25T02:27:37.769Z,4.60
2023-04-25T02:28:37.740Z,4.50
2023-04-25T02:29:37.747Z,4.60
2023-04-25T02:30:37.763Z,4.40
2023-04-25T02:31:37.765Z,4.20
2023-04-25T02:32:37.838Z,4.20
2023-04-25T02:33:37.738Z,4.30
2023-04-25T02:34:37.681Z,4.30
2023-04-25T02:35:37.702Z,4.30
2023-04-25T02:36:37.695Z,4.40
2023-04-25T02:37:37.649Z,4.10
2023-04-25T02:38:38.046Z,4.50
2023-04-25T02:39:37.621Z,4.30
2023-04-25T02:40:37.637Z,4.00
2023-04-25T02:41:37.618Z,3.90
2023-04-25T02:42:40.240Z,4.20
2023-04-25T02:43:37.590Z,4.20
2023-04-25T02:44:37.564Z,3.60
2023-04-25T02:45:37.557Z,4.10
2023-04-25T02:46:39.549Z,4.20
2023-04-25T02:47:37.557Z,3.80
2023-04-25T02:48:37.555Z,4.00
2023-04-25T02:49:37.521Z,4.20
2023-04-25T02:50:37.492Z,4.00
2023-04-25T02:51:37.497Z,4.30
2023-04-25T02:52:37.496Z,3.80
2023-04-25T02:53:37.457Z,4.50
2023-04-25T02:54:37.458Z,3.90
2023-04-25T02:55:37.447Z,4.50
2023-04-25T02:56:37.425Z,3.90
2023-04-25T02:57:37.434Z,4.40
2023-04-25T02:58:37.398Z,4.00
2023-04-25T02:59:37.391Z,4.30
2023-04-25T03:00:37.410Z,4.10
2023-04-25T03:01:37.372Z,3.80
2023-04-25T03:02:37.433Z,4.30
2023-04-25T03:03:37.388Z,4.20
2023-04-25T03:04:37.384Z,4.40
2023-04-25T03:05:37.341Z,4.60
2023-04-25T03:06:37.337Z,4.20
2023-04-25T03:07:37.319Z,4.10
2023-04-25T03:08:37.297Z,4.50
2023-04-25T03:09:37.314Z,4.20
2023-04-25T03:10:37.264Z,4.10
2023-04-25T03:11:37.254Z,4.60
2023-04-25T03:12:37.251Z,4.00
2023-04-25T03:13:37.254Z,4.00
2023-04-25T03:14:37.218Z,4.50
2023-04-25T03:15:37.232Z,4.20
2023-04-25T03:16:37.258Z,4.30
2023-04-25T03:17:37.226Z,4.50
2023-04-25T03:18:37.183Z,3.60
2023-04-25T03:19:37.166Z,4.30
2023-04-25T03:20:37.154Z,4.10
2023-04-25T03:21:37.168Z,3.90
2023-04-25T03:22:37.154Z,4.00
2023-04-25T03:23:37.120Z,4.30
2023-04-25T03:24:44.732Z,4.30
2023-04-25T03:25:37.110Z,3.90
2023-04-25T03:26:37.101Z,3.40
2023-04-25T03:27:37.092Z,4.00
2023-04-25T03:28:37.093Z,4.00
2023-04-25T03:29:37.117Z,4.10
2023-04-25T03:30:37.053Z,3.80
2023-04-25T03:31:37.059Z,3.80
2023-04-25T03:32:37.086Z,4.00
2023-04-25T03:33:37.007Z,3.80
2023-04-25T03:34:36.992Z,4.10
2023-04-25T03:35:36.994Z,3.70
2023-04-25T03:36:37.248Z,4.20
2023-04-25T03:37:37.000Z,3.70
2023-04-25T03:38:36.948Z,4.30
2023-04-25T03:39:36.943Z,3.60
2023-04-25T03:40:36.939Z,4.20
2023-04-25T03:41:36.949Z,3.90
2023-04-25T03:42:36.901Z,3.80
2023-04-25T03:43:36.895Z,4.00
2023-04-25T03:44:36.878Z,4.00
2023-04-25T03:45:36.874Z,3.80
2023-04-25T03:46:36.878Z,4.20
2023-04-25T03:47:36.886Z,3.80
2023-04-25T03:48:36.845Z,3.60
2023-04-25T03:49:36.855Z,3.70
2023-04-25T03:50:36.819Z,4.20
2023-04-25T03:51:36.835Z,3.80
2023-04-25T03:52:36.796Z,4.00
2023-04-25T03:53:36.799Z,3.60
2023-04-25T03:54:36.778Z,4.00
2023-04-25T03:55:36.792Z,3.60
2023-04-25T03:56:36.765Z,3.90
2023-04-25T03:57:36.738Z,4.00
2023-04-25T03:58:36.730Z,3.60
2023-04-25T03:59:36.740Z,3.90
2023-04-25T04:00:36.702Z,3.20
2023-04-25T04:01:36.716Z,3.70
2023-04-25T04:02:36.782Z,3.90
2023-04-25T04:03:36.904Z,3.90
2023-04-25T04:04:37.015Z,3.80
2023-04-25T04:05:36.667Z,3.70
2023-04-25T04:06:36.667Z,3.40
2023-04-25T04:07:36.630Z,3.80
2023-04-25T04:08:36.663Z,3.80
2023-04-25T04:09:36.642Z,3.50
2023-04-25T04:10:36.586Z,3.80
2023-04-25T04:11:36.578Z,3.70
2023-04-25T04:12:36.573Z,3.70
2023-04-25T04:13:36.626Z,3.90
2023-04-25T04:14:36.549Z,3.90
2023-04-25T04:15:36.573Z,4.20
2023-04-25T04:16:36.573Z,4.20
2023-04-25T04:17:36.565Z,3.70
2023-04-25T04:18:36.504Z,4.00
2023-04-25T04:19:37.521Z,3.80
2023-04-25T04:20:36.475Z,3.60
2023-04-25T04:21:36.470Z,3.70
2023-04-25T04:22:36.455Z,3.60
2023-04-25T04:23:38.268Z,4.00
2023-04-25T04:24:36.456Z,3.60
2023-04-25T04:25:36.431Z,3.60
2023-04-25T04:26:36.417Z,3.70
2023-04-25T04:27:36.408Z,3.90
2023-04-25T04:28:36.386Z,3.60
2023-04-25T04:29:36.394Z,3.50
2023-04-25T04:30:36.362Z,3.80
2023-04-25T04:31:36.374Z,3.90
2023-04-25T04:32:36.376Z,4.00
2023-04-25T04:33:36.362Z,4.20
2023-04-25T04:34:36.331Z,3.60
2023-04-25T04:35:36.328Z,3.60
2023-04-25T04:36:36.312Z,4.40
2023-04-25T04:37:36.305Z,4.00
2023-04-25T04:38:36.270Z,3.90
2023-04-25T04:39:36.277Z,3.80
2023-04-25T04:40:36.277Z,3.70
2023-04-25T04:41:36.268Z,3.90
2023-04-25T04:42:36.254Z,3.80
2023-04-25T04:43:36.231Z,3.80
2023-04-25T04:44:36.226Z,4.30
2023-04-25T04:45:36.205Z,4.40
2023-04-25T04:46:36.246Z,4.10
2023-04-25T04:47:36.206Z,4.00
2023-04-25T04:48:36.200Z,4.20
2023-04-25T04:49:36.173Z,3.80
2023-04-25T04:50:36.186Z,4.30
2023-04-25T04:51:36.124Z,4.00
2023-04-25T04:52:36.114Z,4.10
2023-04-25T04:53:36.123Z,3.90
2023-04-25T04:54:36.119Z,3.80
2023-04-25T04:55:36.109Z,4.00
2023-04-25T04:56:36.068Z,4.10
2023-04-25T04:57:36.079Z,4.40
2023-04-25T04:58:36.047Z,4.10
2023-04-25T04:59:36.037Z,4.00
2023-04-25T05:00:36.079Z,4.50
2023-04-25T05:01:36.019Z,4.50
2023-04-25T05:02:36.162Z,4.20
2023-04-25T05:03:36.186Z,4.20
2023-04-25T05:04:36.082Z,4.00
2023-04-25T05:05:36.000Z,4.20
2023-04-25T05:06:35.988Z,4.20
2023-04-25T05:07:35.985Z,4.20
2023-04-25T05:08:35.936Z,4.20
2023-04-25T05:09:35.935Z,4.30
2023-04-25T05:10:35.925Z,4.40
2023-04-25T05:11:35.903Z,4.40
2023-04-25T05:12:37.143Z,4.20
2023-04-25T05:13:35.909Z,4.60
2023-04-25T05:14:35.884Z,4.30
2023-04-25T05:15:35.912Z,4.40
2023-04-25T05:16:35.880Z,4.50
2023-04-25T05:17:35.874Z,4.20
2023-04-25T05:18:35.838Z,4.40
2023-04-25T05:19:35.808Z,4.30
2023-04-25T05:20:35.788Z,4.50
2023-04-25T05:21:35.791Z,4.80
2023-04-25T05:22:35.796Z,4.90
2023-04-25T05:23:35.757Z,4.50
2023-04-25T05:24:35.768Z,4.70
2023-04-25T05:25:35.743Z,4.90
2023-04-25T05:26:35.826Z,4.70
2023-04-25T05:27:35.722Z,4.50
2023-04-25T05:28:35.718Z,4.60
2023-04-25T05:29:35.711Z,4.60
2023-04-25T05:30:35.688Z,4.70
2023-04-25T05:31:35.729Z,4.50
2023-04-25T05:32:35.707Z,4.30
2023-04-25T05:33:35.672Z,4.30
2023-04-25T05:34:35.645Z,4.30
2023-04-25T05:35:35.669Z,4.30
2023-04-25T05:36:35.630Z,4.10
2023-04-25T05:37:35.603Z,4.10
2023-04-25T05:38:35.612Z,4.00
2023-04-25T05:39:35.580Z,3.90
2023-04-25T05:40:35.573Z,3.50
2023-04-25T05:41:35.547Z,3.80
2023-04-25T05:42:35.535Z,3.60
2023-04-25T05:43:35.559Z,4.00
2023-04-25T05:44:35.515Z,3.80
2023-04-25T05:45:35.541Z,3.80
2023-04-25T05:46:35.572Z,3.60
2023-04-25T05:47:35.500Z,3.90
2023-04-25T05:48:35.472Z,4.30
2023-04-25T05:49:35.472Z,4.00
2023-04-25T05:50:35.443Z,4.10
2023-04-25T05:51:35.435Z,4.30
2023-04-25T05:52:35.736Z,4.30
2023-04-25T05:53:35.419Z,3.90
2023-04-25T05:54:35.419Z,4.30
2023-04-25T05:55:35.397Z,4.50
2023-04-25T05:56:36.684Z,3.90
2023-04-25T05:57:35.377Z,3.90
2023-04-25T05:58:35.374Z,4.00
2023-04-25T05:59:35.338Z,3.80
2023-04-25T06:00:35.332Z,3.60
2023-04-25T06:01:35.334Z,3.60
2023-04-25T06:02:35.494Z,3.50
2023-04-25T06:03:35.431Z,3.80
2023-04-25T06:04:35.580Z,3.80
2023-04-25T06:05:35.389Z,3.40
2023-04-25T06:06:35.284Z,4.10
2023-04-25T06:07:35.243Z,4.30
2023-04-25T06:08:35.231Z,3.80
2023-04-25T06:09:35.240Z,3.70
2023-04-25T06:10:35.228Z,4.00
2023-04-25T06:11:35.243Z,3.70
2023-04-25T06:12:35.193Z,3.50
2023-04-25T06:13:35.173Z,3.90
2023-04-25T06:14:35.166Z,3.60
2023-04-25T06:15:35.215Z,3.90
2023-04-25T06:16:35.414Z,4.40
2023-04-25T06:17:35.189Z,3.90
2023-04-25T06:18:35.131Z,4.30
2023-04-25T06:19:35.116Z,4.60
2023-04-25T06:20:35.149Z,4.20
2023-04-25T06:21:35.093Z,5.40
2023-04-25T06:22:35.073Z,6.80
2023-04-25T06:23:35.087Z,9.90
2023-04-25T06:24:35.109Z,10.80
2023-04-25T06:25:35.058Z,9.90
2023-04-25T06:26:35.036Z,7.60
2023-04-25T06:27:35.074Z,4.50
2023-04-25T06:28:35.065Z,4.50
2023-04-25T06:29:35.010Z,3.70
2023-04-25T06:30:35.043Z,3.50
2023-04-25T06:31:35.072Z,3.90
2023-04-25T06:32:35.032Z,3.70
2023-04-25T06:33:34.992Z,4.70
2023-04-25T06:34:34.964Z,6.50
2023-04-25T06:35:34.923Z,6.00
2023-04-25T06:36:34.934Z,3.70
2023-04-25T06:37:34.903Z,4.60
2023-04-25T06:38:34.910Z,6.00
2023-04-25T06:39:34.909Z,4.90
2023-04-25T06:40:34.875Z,3.90
2023-04-25T06:41:34.861Z,4.60
2023-04-25T06:42:34.868Z,4.90
2023-04-25T06:43:34.839Z,4.30
2023-04-25T06:44:34.846Z,4.00
2023-04-25T06:45:34.824Z,5.00
2023-04-25T06:46:34.864Z,4.60
2023-04-25T06:47:34.848Z,3.70
2023-04-25T06:48:34.782Z,4.20
2023-04-25T06:49:34.803Z,3.80
2023-04-25T06:50:34.763Z,3.80
2023-04-25T06:51:34.742Z,3.60
2023-04-25T06:52:34.732Z,3.90
2023-04-25T06:53:34.719Z,3.70
2023-04-25T06:54:34.734Z,3.70
2023-04-25T06:55:34.700Z,4.10
2023-04-25T06:56:34.709Z,4.10
2023-04-25T06:57:34.680Z,4.00
2023-04-25T06:58:34.696Z,5.00
2023-04-25T06:59:34.681Z,4.80
2023-04-25T07:00:34.745Z,5.00
2023-04-25T07:01:34.656Z,7.30
2023-04-25T07:02:34.761Z,9.00
2023-04-25T07:03:34.689Z,4.50
2023-04-25T07:04:34.829Z,3.50
2023-04-25T07:05:34.604Z,3.30
2023-04-25T07:06:34.583Z,3.90
2023-04-25T07:07:34.585Z,5.20
2023-04-25T07:08:34.546Z,5.50
2023-04-25T07:09:34.568Z,6.20
2023-04-25T07:10:34.563Z,5.10
2023-04-25T07:11:34.516Z,4.40
2023-04-25T07:12:34.545Z,4.40
2023-04-25T07:13:34.529Z,3.50
2023-04-25T07:14:34.540Z,3.60
2023-04-25T07:15:34.501Z,3.80
2023-04-25T07:16:34.556Z,3.80
2023-04-25T07:17:34.480Z,3.20
2023-04-25T07:18:34.444Z,3.80
2023-04-25T07:19:34.486Z,3.20
2023-04-25T07:20:34.434Z,3.30
2023-04-25T07:21:34.471Z,3.30
2023-04-25T07:22:34.395Z,2.70
2023-04-25T07:23:34.388Z,3.40
2023-04-25T07:24:34.396Z,2.80
2023-04-25T07:25:34.367Z,2.90
2023-04-25T07:26:34.350Z,3.20
2023-04-25T07:27:34.338Z,3.10
2023-04-25T07:28:34.335Z,3.50
2023-04-25T07:29:34.355Z,4.10
2023-04-25T07:30:34.298Z,4.20
2023-04-25T07:31:34.343Z,4.70
2023-04-25T07:32:34.307Z,4.80
2023-04-25T07:33:34.525Z,3.20
2023-04-25T07:34:34.273Z,3.40
2023-04-25T07:35:34.256Z,2.60
2023-04-25T07:36:34.306Z,3.40
2023-04-25T07:37:34.238Z,3.10
2023-04-25T07:38:34.216Z,3.50
2023-04-25T07:39:34.242Z,14.30
2023-04-25T07:40:34.209Z,2.20
2023-04-25T07:41:34.177Z,2.30
2023-04-25T07:42:34.314Z,2.60
2023-04-25T07:43:34.149Z,2.60
2023-04-25T07:44:34.153Z,2.20
2023-04-25T07:45:34.185Z,2.80
2023-04-25T07:46:34.319Z,2.20
2023-04-25T07:47:34.140Z,2.40
2023-04-25T07:48:34.094Z,2.00
2023-04-25T07:49:34.096Z,2.40
2023-04-25T07:50:34.120Z,2.40
2023-04-25T07:51:34.068Z,2.50
2023-04-25T07:52:34.064Z,2.40
2023-04-25T07:53:34.114Z,1.90
2023-04-25T07:54:34.021Z,2.30
2023-04-25T07:55:34.015Z,2.20
2023-04-25T07:56:48.928Z,2.00
2023-04-25T07:57:35.001Z,2.00
2023-04-25T07:58:33.978Z,2.10
2023-04-25T07:59:33.967Z,2.00
2023-04-25T08:00:33.978Z,2.00
2023-04-25T08:01:33.939Z,1.80
2023-04-25T08:02:34.042Z,2.10
2023-04-25T08:03:34.156Z,2.10
2023-04-25T08:04:34.176Z,1.90
2023-04-25T08:05:34.067Z,2.00
2023-04-25T08:06:34.073Z,1.90
2023-04-25T08:07:34.084Z,2.10
2023-04-25T08:08:33.862Z,2.30
2023-04-25T08:09:33.864Z,4.30
2023-04-25T08:10:33.884Z,9.30
2023-04-25T08:11:33.829Z,6.30
2023-04-25T08:12:33.827Z,2.90
2023-04-25T08:13:33.801Z,2.50
2023-04-25T08:14:33.790Z,3.50
2023-04-25T08:15:33.817Z,4.30
2023-04-25T08:16:33.904Z,3.60
2023-04-25T08:17:33.792Z,3.90
2023-04-25T08:18:33.748Z,4.20
2023-04-25T08:19:33.844Z,3.60
2023-04-25T08:20:33.725Z,3.60
2023-04-25T08:21:33.949Z,3.20
2023-04-25T08:22:33.718Z,3.80
2023-04-25T08:23:33.695Z,3.30
2023-04-25T08:24:33.675Z,3.20
2023-04-25T08:25:33.702Z,3.50
2023-04-25T08:26:33.661Z,3.60
2023-04-25T08:27:33.663Z,4.20
2023-04-25T08:28:33.643Z,3.90
2023-04-25T08:29:33.613Z,3.60
2023-04-25T08:30:33.626Z,3.80
2023-04-25T08:31:33.743Z,3.70
2023-04-25T08:32:33.613Z,3.90
2023-04-25T08:33:33.606Z,3.90
2023-04-25T08:34:33.568Z,4.60
2023-04-25T08:35:33.567Z,3.60
2023-04-25T08:36:39.148Z,3.50
2023-04-25T08:37:34.567Z,4.00
2023-04-25T08:38:33.518Z,3.90
2023-04-25T08:39:33.518Z,4.00
2023-04-25T08:40:33.492Z,3.80
2023-04-25T08:41:33.499Z,4.40
2023-04-25T08:42:33.501Z,4.00
2023-04-25T08:43:33.474Z,4.00
2023-04-25T08:44:33.456Z,3.50
2023-04-25T08:45:33.494Z,3.70
2023-04-25T08:46:33.467Z,3.60
2023-04-25T08:47:33.453Z,3.40
2023-04-25T08:48:33.397Z,4.10
2023-04-25T08:49:35.154Z,3.90
2023-04-25T08:50:33.380Z,3.50
2023-04-25T08:51:33.358Z,3.70
2023-04-25T08:52:33.354Z,3.80
2023-04-25T08:53:34.033Z,3.40
2023-04-25T08:54:34.719Z,3.70
2023-04-25T08:55:33.317Z,3.00
2023-04-25T08:56:33.315Z,3.20
2023-04-25T08:57:33.337Z,3.20
2023-04-25T08:58:33.302Z,3.20
2023-04-25T08:59:33.291Z,3.30
2023-04-25T09:00:33.263Z,3.60
2023-04-25T09:01:33.489Z,3.60
2023-04-25T09:02:33.423Z,3.40
2023-04-25T09:03:33.285Z,3.60
2023-04-25T09:04:33.222Z,3.10
2023-04-25T09:05:33.211Z,3.20
2023-04-25T09:06:33.326Z,2.60
2023-04-25T09:07:33.178Z,2.90
2023-04-25T09:08:33.172Z,2.90
2023-04-25T09:09:33.180Z,3.00
2023-04-25T09:10:36.032Z,2.80
2023-04-25T09:11:33.130Z,2.90
2023-04-25T09:12:33.195Z,3.10
2023-04-25T09:13:33.124Z,3.20
2023-04-25T09:14:33.117Z,3.30
2023-04-25T09:15:33.079Z,3.30
2023-04-25T09:16:33.833Z,3.60
2023-04-25T09:17:33.104Z,3.30
2023-04-25T09:18:33.112Z,3.40
2023-04-25T09:19:40.340Z,3.40
2023-04-25T09:20:37.567Z,3.20
2023-04-25T09:21:33.015Z,3.20
2023-04-25T09:22:33.011Z,3.50
2023-04-25T09:23:33.019Z,4.00
2023-04-25T09:24:32.985Z,3.50
2023-04-25T09:25:40.134Z,3.40
2023-04-25T09:26:32.974Z,3.40
2023-04-25T09:27:32.969Z,5.50
2023-04-25T09:28:32.955Z,3.40
2023-04-25T09:29:32.986Z,3.30
2023-04-25T09:30:32.950Z,3.40
2023-04-25T09:31:32.920Z,3.30
2023-04-25T09:32:33.182Z,3.30
2023-04-25T09:33:32.917Z,3.20
2023-04-25T09:34:32.888Z,3.70
2023-04-25T09:35:32.879Z,4.50
2023-04-25T09:36:32.852Z,3.70
2023-04-25T09:37:32.834Z,3.30
2023-04-25T09:38:32.831Z,3.70
2023-04-25T09:39:32.809Z,4.30
2023-04-25T09:40:32.806Z,5.80
2023-04-25T09:41:32.806Z,3.20
2023-04-25T09:42:32.868Z,3.50
2023-04-25T09:43:32.766Z,3.70
2023-04-25T09:44:32.757Z,3.80
2023-04-25T09:45:32.773Z,3.90
2023-04-25T09:46:32.778Z,3.50
2023-04-25T09:47:32.763Z,3.30
2023-04-25T09:48:32.737Z,2.70
2023-04-25T09:49:32.720Z,4.70
2023-04-25T09:50:32.685Z,4.60
2023-04-25T09:51:32.706Z,3.30
2023-04-25T09:52:32.663Z,3.50
2023-04-25T09:53:32.675Z,3.80
2023-04-25T09:54:32.654Z,5.80
2023-04-25T09:55:32.633Z,4.40
2023-04-25T09:56:32.637Z,3.60
2023-04-25T09:57:32.625Z,2.90
2023-04-25T09:58:33.324Z,3.10
2023-04-25T09:59:32.629Z,3.20
2023-04-25T10:00:32.584Z,3.00
2023-04-25T10:01:32.599Z,3.40
2023-04-25T10:02:32.695Z,2.90
2023-04-25T10:03:32.868Z,3.20
2023-04-25T10:04:33.943Z,3.00
2023-04-25T10:05:32.536Z,2.60
2023-04-25T10:06:32.518Z,2.80
2023-04-25T10:07:32.507Z,2.70
2023-04-25T10:08:32.504Z,2.80
2023-04-25T10:09:32.468Z,3.40
2023-04-25T10:10:32.462Z,5.10
2023-04-25T10:11:32.454Z,5.40
2023-04-25T10:12:32.490Z,3.00
2023-04-25T10:13:32.431Z,3.40
2023-04-25T10:14:32.418Z,3.20
2023-04-25T10:15:32.430Z,3.50
2023-04-25T10:16:32.470Z,3.10
2023-04-25T10:17:32.633Z,3.30
2023-04-25T10:18:32.384Z,3.90
2023-04-25T10:19:32.379Z,4.00
2023-04-25T10:20:32.345Z,3.40
2023-04-25T10:21:32.339Z,3.70
2023-04-25T10:22:32.344Z,3.50
2023-04-25T10:23:32.310Z,3.00
2023-04-25T10:24:32.307Z,2.90
2023-04-25T10:25:32.294Z,2.80
2023-04-25T10:26:32.288Z,2.80
2023-04-25T10:27:32.294Z,2.60
2023-04-25T10:28:32.285Z,2.30
2023-04-25T10:29:32.254Z,2.70
2023-04-25T10:30:32.306Z,2.40
2023-04-25T10:31:32.444Z,2.70
2023-04-25T10:32:32.230Z,2.40
2023-04-25T10:33:32.331Z,2.40
2023-04-25T10:34:32.208Z,2.50
2023-04-25T10:35:32.186Z,2.40
2023-04-25T10:36:32.171Z,2.70
2023-04-25T10:37:32.167Z,2.70
2023-04-25T10:38:32.141Z,2.60
2023-04-25T10:39:32.148Z,2.30
2023-04-25T10:40:32.119Z,2.70
2023-04-25T10:41:32.108Z,2.60
2023-04-25T10:42:32.116Z,2.40
2023-04-25T10:43:32.860Z,2.40
2023-04-25T10:44:32.088Z,2.70
2023-04-25T10:45:32.058Z,2.50
2023-04-25T10:46:32.252Z,2.50
2023-04-25T10:47:34.460Z,2.50
2023-04-25T10:48:32.026Z,2.90
2023-04-25T10:49:32.028Z,2.70
2023-04-25T10:50:32.000Z,2.60
2023-04-25T10:51:39.907Z,2.80
2023-04-25T10:52:33.002Z,2.50
2023-04-25T10:53:31.981Z,3.00
2023-04-25T10:54:31.956Z,4.80
2023-04-25T10:55:31.945Z,2.80
2023-04-25T10:56:31.936Z,2.80
2023-04-25T10:57:31.946Z,2.60
2023-04-25T10:58:31.914Z,2.50
2023-04-25T10:59:31.906Z,2.80
2023-04-25T11:00:42.970Z,2.40
2023-04-25T11:01:32.899Z,2.40
2023-04-25T11:02:32.032Z,2.70
2023-04-25T11:03:32.006Z,2.40
2023-04-25T11:04:32.083Z,2.50
2023-04-25T11:05:32.903Z,3.00
2023-04-25T11:06:31.836Z,3.30
2023-04-25T11:07:31.820Z,2.80
2023-04-25T11:08:31.819Z,2.90
2023-04-25T11:09:31.786Z,2.90
2023-04-25T11:10:31.778Z,2.80
2023-04-25T11:11:31.846Z,3.00
2023-04-25T11:12:31.749Z,2.80
2023-04-25T11:13:31.761Z,2.60
2023-04-25T11:14:31.784Z,2.60
2023-04-25T11:15:31.722Z,3.10
2023-04-25T11:16:31.771Z,2.70
2023-04-25T11:17:31.782Z,3.10
2023-04-25T11:18:31.728Z,2.90
2023-04-25T11:19:31.701Z,2.80
2023-04-25T11:20:31.661Z,4.00
2023-04-25T11:21:31.823Z,5.70
2023-04-25T11:22:31.656Z,4.50
2023-04-25T11:23:31.630Z,2.90
2023-04-25T11:24:31.643Z,5.20
2023-04-25T11:25:31.626Z,3.70
2023-04-25T11:26:31.596Z,3.40
2023-04-25T11:27:31.581Z,4.50
2023-04-25T11:28:31.580Z,4.30
2023-04-25T11:29:31.586Z,4.20
2023-04-25T11:30:31.658Z,3.80
2023-04-25T11:31:31.595Z,3.50
2023-04-25T11:32:31.777Z,3.50
2023-04-25T11:33:31.518Z,3.30
2023-04-25T11:34:32.497Z,3.40
2023-04-25T11:35:31.488Z,3.60
2023-04-25T11:36:31.498Z,4.20
2023-04-25T11:37:31.558Z,4.60
2023-04-25T11:38:31.456Z,4.20
2023-04-25T11:39:31.454Z,4.70
2023-04-25T11:40:31.462Z,4.70
2023-04-25T11:41:31.421Z,5.40
2023-04-25T11:42:31.408Z,5.60
2023-04-25T11:43:31.430Z,5.40
2023-04-25T11:44:31.398Z,5.60
2023-04-25T11:45:31.456Z,6.20
2023-04-25T11:46:31.437Z,6.00
2023-04-25T11:47:31.391Z,6.00
2023-04-25T11:48:31.356Z,6.80
2023-04-25T11:49:32.413Z,6.10
2023-04-25T11:50:31.319Z,5.80
2023-04-25T11:51:31.330Z,5.80
2023-04-25T11:52:31.320Z,5.80
2023-04-25T11:53:31.316Z,6.40
2023-04-25T11:54:31.277Z,6.60
2023-04-25T11:55:31.282Z,6.00
2023-04-25T11:56:31.268Z,6.60
2023-04-25T11:57:31.242Z,5.90
2023-04-25T11:58:31.227Z,6.40
2023-04-25T11:59:31.279Z,6.20
2023-04-25T12:00:31.233Z,5.80
2023-04-25T12:01:35.212Z,6.20
2023-04-25T12:02:31.315Z,6.10
2023-04-25T12:03:31.332Z,5.80
2023-04-25T12:04:31.470Z,5.90
2023-04-25T12:05:33.114Z,6.40
2023-04-25T12:06:31.191Z,5.90
2023-04-25T12:07:31.128Z,6.20
2023-04-25T12:08:31.138Z,5.70
2023-04-25T12:09:31.172Z,6.10
2023-04-25T12:10:31.119Z,6.20
2023-04-25T12:11:31.091Z,5.90
2023-04-25T12:12:31.089Z,5.40
2023-04-25T12:13:31.055Z,6.10
2023-04-25T12:14:31.064Z,5.20
2023-04-25T12:15:31.036Z,5.20
2023-04-25T12:16:31.121Z,5.30
2023-04-25T12:17:31.046Z,4.80
2023-04-25T12:18:31.016Z,4.60
2023-04-25T12:19:30.984Z,4.70
2023-04-25T12:20:32.006Z,5.50
2023-04-25T12:21:30.966Z,4.70
2023-04-25T12:22:30.961Z,5.10
2023-04-25T12:23:30.973Z,5.10
2023-04-25T12:24:30.942Z,5.30
2023-04-25T12:25:31.047Z,4.80
2023-04-25T12:26:30.925Z,4.90
2023-04-25T12:27:30.905Z,4.80
2023-04-25T12:28:30.907Z,4.60
2023-04-25T12:29:34.798Z,5.30
2023-04-25T12:30:31.874Z,4.80
2023-04-25T12:31:30.897Z,5.00
2023-04-25T12:32:30.901Z,5.20
2023-04-25T12:33:30.868Z,5.20
2023-04-25T12:34:30.819Z,5.90
2023-04-25T12:35:30.820Z,5.10
2023-04-25T12:36:30.794Z,5.30
2023-04-25T12:37:30.782Z,5.60
2023-04-25T12:38:30.790Z,5.90
2023-04-25T12:39:30.816Z,5.80
2023-04-25T12:40:30.749Z,5.50
2023-04-25T12:41:30.757Z,5.80
2023-04-25T12:42:30.725Z,5.40
2023-04-25T12:43:30.731Z,6.00
2023-04-25T12:44:30.726Z,5.60
2023-04-25T12:45:30.692Z,6.20
2023-04-25T12:46:30.779Z,5.60
2023-04-25T12:47:30.720Z,5.60
2023-04-25T12:48:30.680Z,5.90
2023-04-25T12:49:30.665Z,5.70
2023-04-25T12:50:30.640Z,5.80
2023-04-25T12:51:30.629Z,5.70
2023-04-25T12:52:30.631Z,5.40
2023-04-25T12:53:30.618Z,5.80
2023-04-25T12:54:30.588Z,5.50
2023-04-25T12:55:30.632Z,5.90
2023-04-25T12:56:30.614Z,5.60
2023-04-25T12:57:30.601Z,5.50
2023-04-25T12:58:30.557Z,5.60
2023-04-25T12:59:30.549Z,5.70
2023-04-25T13:00:30.601Z,5.60
2023-04-25T13:01:30.638Z,5.30
2023-04-25T13:02:30.569Z,5.70
2023-04-25T13:03:30.630Z,5.40
2023-04-25T13:04:30.541Z,5.50
2023-04-25T13:05:30.470Z,5.40
2023-04-25T13:06:30.455Z,5.00
2023-04-25T13:07:30.443Z,4.50
2023-04-25T13:08:30.469Z,4.70
2023-04-25T13:09:30.418Z,5.20
2023-04-25T13:10:30.406Z,4.70
2023-04-25T13:12:30.383Z,4.80
2023-04-25T13:13:30.407Z,4.60
2023-04-25T13:14:30.360Z,4.50
2023-04-25T13:15:30.342Z,4.50
2023-04-25T13:16:30.431Z,5.10
2023-04-25T13:17:30.386Z,4.70
2023-04-25T13:18:30.327Z,5.10
2023-04-25T13:19:30.300Z,4.70